Time;durP1;ratioP1;P1;durP2;ratioP2;P2;SDS_P1;SDS_P2;PMS_P1;PMS_P2;Temp;Humidity;BMP_temperature;BMP_pressure;BME280_temperature;BME280_humidity;BME280_pressure;Samples;Min_cycle;Max_cycle;Signal;HPM_P1;HPM_P2
2023/09/19 00:02:09;;;;;;;0.10;0.10;;;;;;;18.42;100.00;98445.91;5094956;28;20190;-58
2023/09/19 00:04:56;;;;;;;0.10;0.10;;;;;;;18.35;100.00;98444.91;5094612;28;20198;-58
2023/09/19 00:07:42;;;;;;;0.10;0.10;;;;;;;18.31;100.00;98445.22;5094767;28;20195;-58
2023/09/19 00:10:30;;;;;;;0.10;0.10;;;;;;;18.31;100.00;98444.38;5094679;28;20194;-58
2023/09/19 00:13:18;;;;;;;0.10;0.10;;;;;;;18.29;100.00;98449.91;5093380;28;20298;-56
2023/09/19 00:16:10;;;;;;;0.10;0.10;;;;;;;18.06;100.00;98453.38;5094455;28;20194;-57
2023/09/19 00:19:02;;;;;;;0.10;0.10;;;;;;;18.13;100.00;98460.59;5094174;28;20341;-57
2023/09/19 00:21:49;;;;;;;0.10;0.10;;;;;;;18.22;100.00;98461.44;5094276;28;20198;-57
2023/09/19 00:24:37;;;;;;;0.10;0.10;;;;;;;18.28;100.00;98458.97;5094539;28;20233;-57
2023/09/19 00:27:23;;;;;;;0.10;0.10;;;;;;;18.13;100.00;98457.91;5094415;28;20309;-58
2023/09/19 00:30:15;;;;;;;0.10;0.10;;;;;;;18.19;100.00;98473.34;5092287;28;20206;-57
2023/09/19 00:33:05;;;;;;;0.10;0.10;;;;;;;18.17;100.00;98466.47;5094161;28;20271;-59
2023/09/19 00:35:55;;;;;;;0.10;0.10;;;;;;;18.18;100.00;98474.34;5094351;28;20198;-57
2023/09/19 00:38:44;;;;;;;0.10;0.10;;;;;;;18.15;100.00;98473.84;5093881;28;20700;-57
2023/09/19 00:41:31;;;;;;;0.10;0.10;;;;;;;18.15;100.00;98474.69;5094130;28;20237;-58
2023/09/19 00:44:19;;;;;;;0.10;0.10;;;;;;;18.21;100.00;98475.84;5092788;28;20202;-58
2023/09/19 00:47:06;;;;;;;0.10;0.10;;;;;;;18.17;100.00;98480.72;5094041;28;20199;-57
2023/09/19 00:49:54;;;;;;;0.00;0.00;;;;;;;18.22;100.00;98480.22;5092975;28;20195;-57
2023/09/19 00:52:45;;;;;;;0.10;0.10;;;;;;;18.22;100.00;98488.25;5092893;28;20309;-57
2023/09/19 00:55:32;;;;;;;0.10;0.10;;;;;;;18.20;100.00;98490.25;5093992;28;20234;-57
2023/09/19 00:58:20;;;;;;;0.10;0.10;;;;;;;18.10;100.00;98490.41;5091381;28;20207;-57
2023/09/19 01:01:08;;;;;;;0.10;0.10;;;;;;;18.10;100.00;98505.66;5093709;28;20194;-57
2023/09/19 01:03:54;;;;;;;0.10;0.10;;;;;;;18.03;100.00;98510.81;5092663;28;20245;-57
2023/09/19 01:06:41;;;;;;;0.10;0.10;;;;;;;17.99;100.00;98512.97;5093680;28;20241;-57
2023/09/19 01:09:34;;;;;;;0.10;0.10;;;;;;;17.84;100.00;98508.38;5093635;28;20272;-57
2023/09/19 01:12:31;;;;;;;0.10;0.10;;;;;;;17.67;100.00;98512.78;5093534;28;20555;-57
2023/09/19 01:15:40;;;;;;;0.10;0.10;;;;;;;17.62;100.00;98523.13;5091166;28;20195;-57
2023/09/19 01:18:37;;;;;;;0.10;0.10;;;;;;;17.66;100.00;98525.34;5093230;28;20211;-57
2023/09/19 01:21:29;;;;;;;0.10;0.10;;;;;;;17.54;100.00;98525.75;5093388;28;20358;-57
2023/09/19 01:24:55;;;;;;;0.10;0.10;;;;;;;17.49;100.00;98525.41;5091735;28;20230;-57
2023/09/19 01:28:07;;;;;;;0.10;0.10;;;;;;;17.37;100.00;98528.34;5093275;28;20253;-57
2023/09/19 01:30:58;;;;;;;0.10;0.10;;;;;;;17.33;100.00;98534.16;5093372;28;20194;-57
2023/09/19 01:34:00;;;;;;;0.10;0.10;;;;;;;17.32;100.00;98548.53;5093163;28;20245;-57
2023/09/19 01:36:47;;;;;;;0.10;0.10;;;;;;;17.24;100.00;98541.28;5091812;28;20187;-57
2023/09/19 01:39:34;;;;;;;0.10;0.10;;;;;;;17.23;100.00;98550.31;5092720;28;20245;-57
2023/09/19 01:42:30;;;;;;;0.20;0.20;;;;;;;17.20;100.00;98553.31;5093115;28;20210;-57
2023/09/19 01:45:26;;;;;;;0.03;0.03;;;;;;;17.14;100.00;98556.59;5091710;28;20191;-57
2023/09/19 01:48:26;;;;;;;0.10;0.10;;;;;;;17.15;100.00;98551.06;5093119;28;20199;-57
2023/09/19 01:51:19;;;;;;;0.10;0.10;;;;;;;17.07;100.00;98552.84;5092968;28;20198;-57
2023/09/19 01:54:12;;;;;;;0.10;0.10;;;;;;;17.09;100.00;98561.56;5092991;28;20202;-57
2023/09/19 01:57:05;;;;;;;0.20;0.20;;;;;;;17.01;100.00;98562.34;5092898;28;20317;-56
2023/09/19 01:59:58;;;;;;;0.10;0.10;;;;;;;16.90;100.00;98569.75;5090481;28;20268;-57
2023/09/19 02:02:48;;;;;;;0.10;0.10;;;;;;;16.94;100.00;98574.63;5091817;28;20241;-57
2023/09/19 02:05:37;;;;;;;0.10;0.10;;;;;;;16.85;100.00;98570.19;5092850;28;20203;-57
2023/09/19 02:08:24;;;;;;;0.10;0.10;;;;;;;16.83;100.00;98570.34;5093063;28;20665;-57
2023/09/19 02:11:11;;;;;;;0.10;0.10;;;;;;;16.83;100.00;98577.53;5092736;28;20310;-57
2023/09/19 02:13:59;;;;;;;0.10;0.10;;;;;;;16.81;100.00;98577.69;5090545;28;20233;-57
2023/09/19 02:16:46;;;;;;;0.10;0.10;;;;;;;16.83;100.00;98577.53;5092783;28;20662;-57
2023/09/19 02:19:33;;;;;;;0.10;0.10;;;;;;;16.79;100.00;98585.03;5092550;28;20214;-57
2023/09/19 02:22:22;;;;;;;0.10;0.10;;;;;;;16.74;100.00;98591.81;5092531;28;20237;-57
2023/09/19 02:25:09;;;;;;;0.10;0.10;;;;;;;16.71;100.00;98595.66;5091670;28;20190;-57
2023/09/19 02:27:58;;;;;;;0.10;0.10;;;;;;;16.76;100.00;98598.69;5091723;28;20669;-57
2023/09/19 02:30:48;;;;;;;0.10;0.10;;;;;;;16.84;100.00;98603.28;5092612;28;20203;-57
2023/09/19 02:33:37;;;;;;;0.10;0.10;;;;;;;16.80;100.00;98597.41;5091548;28;20759;-57
2023/09/19 02:36:24;;;;;;;0.10;0.10;;;;;;;16.76;100.00;98601.38;5092656;28;20249;-57
2023/09/19 02:39:13;;;;;;;0.10;0.10;;;;;;;16.91;100.00;98603.53;5091271;28;20206;-57
2023/09/19 02:42:00;;;;;;;0.10;0.10;;;;;;;16.74;100.00;98599.84;5091596;28;20199;-57
2023/09/19 02:44:48;;;;;;;0.10;0.10;;;;;;;16.81;100.00;98612.47;5090274;28;20195;-57
2023/09/19 02:47:35;;;;;;;0.10;0.10;;;;;;;16.74;100.00;98605.19;5092445;28;20313;-56
2023/09/19 02:50:22;;;;;;;0.00;0.00;;;;;;;16.77;100.00;98610.22;5091516;28;20191;-57
2023/09/19 02:53:10;;;;;;;0.10;0.10;;;;;;;16.78;100.00;98609.25;5092946;28;20222;-57
2023/09/19 02:55:59;;;;;;;0.10;0.10;;;;;;;16.83;100.00;98604.28;5096129;28;20198;-57
2023/09/19 02:58:45;;;;;;;0.10;0.10;;;;;;;16.77;100.00;98607.56;5094684;28;20222;-57
2023/09/19 03:01:33;;;;;;;0.10;0.10;;;;;;;16.88;100.00;98607.34;5095145;28;20416;-57
2023/09/19 03:04:21;;;;;;;0.10;0.10;;;;;;;16.92;100.00;98599.88;5095773;28;20190;-57
2023/09/19 03:07:11;;;;;;;0.10;0.10;;;;;;;16.94;100.00;98604.06;5094861;28;20199;-57
2023/09/19 03:09:58;;;;;;;0.10;0.10;;;;;;;16.79;100.00;98609.13;5095856;28;20191;-57
2023/09/19 03:12:47;;;;;;;0.10;0.10;;;;;;;16.78;100.00;98606.56;5095714;28;20209;-57
2023/09/19 03:15:34;;;;;;;0.10;0.10;;;;;;;16.85;100.00;98608.50;5094594;28;20553;-57
2023/09/19 03:18:21;;;;;;;0.10;0.10;;;;;;;16.88;100.00;98618.03;5094529;28;20565;-57
2023/09/19 03:21:09;;;;;;;0.10;0.10;;;;;;;16.87;100.00;98614.53;5094373;28;20287;-57
2023/09/19 03:23:58;;;;;;;0.13;0.13;;;;;;;16.83;100.00;98623.84;5094315;28;20269;-57
2023/09/19 03:26:46;;;;;;;0.10;0.10;;;;;;;16.86;100.00;98622.69;5094592;28;20194;-57
2023/09/19 03:29:37;;;;;;;0.10;0.10;;;;;;;16.91;100.00;98614.25;5092661;28;20192;-57
2023/09/19 03:32:24;;;;;;;0.10;0.10;;;;;;;16.92;100.00;98607.91;5095344;28;20187;-57
2023/09/19 03:35:13;;;;;;;0.10;0.10;;;;;;;17.02;100.00;98608.66;5095315;28;20206;-57
2023/09/19 03:38:01;;;;;;;0.10;0.10;;;;;;;16.86;100.00;98609.34;5095176;28;20195;-57
2023/09/19 03:40:48;;;;;;;0.10;0.10;;;;;;;16.96;100.00;98603.91;5094244;28;20233;-57
2023/09/19 03:43:35;;;;;;;0.10;0.10;;;;;;;16.96;100.00;98596.72;5093034;28;20194;-57
2023/09/19 03:46:25;;;;;;;0.10;0.10;;;;;;;16.92;100.00;98595.34;5094126;28;20196;-57
2023/09/19 03:49:12;;;;;;;0.10;0.10;;;;;;;16.95;100.00;98599.56;5094155;28;20203;-57
2023/09/19 03:51:59;;;;;;;0.10;0.10;;;;;;;16.95;100.00;98591.53;5095101;28;20269;-57
2023/09/19 03:54:46;;;;;;;0.10;0.10;;;;;;;17.09;100.00;98599.88;5093971;28;20678;-57
2023/09/19 03:57:36;;;;;;;0.10;0.10;;;;;;;17.07;100.00;98595.66;5093906;28;20194;-57
2023/09/19 04:00:24;;;;;;;0.10;0.10;;;;;;;17.03;100.00;98589.78;5092284;28;20218;-57
2023/09/19 04:03:19;;;;;;;0.10;0.10;;;;;;;17.03;100.00;98595.13;5094825;28;20191;-57
2023/09/19 04:06:06;;;;;;;0.10;0.10;;;;;;;16.98;100.00;98585.88;5092745;28;20203;-57
2023/09/19 04:08:54;;;;;;;0.10;0.10;;;;;;;17.06;100.00;98600.16;5094666;28;20198;-57
2023/09/19 04:11:41;;;;;;;0.17;0.17;;;;;;;17.08;100.00;98616.06;5093677;28;20191;-57
2023/09/19 04:14:28;;;;;;;0.10;0.10;;;;;;;17.00;100.00;98629.38;5093380;28;20198;-57
2023/09/19 04:17:15;;;;;;;0.10;0.10;;;;;;;16.83;100.00;98639.06;5093405;28;20202;-57
2023/09/19 04:20:07;;;;;;;0.10;0.10;;;;;;;16.66;100.00;98637.16;5093421;28;20256;-57
2023/09/19 04:22:54;;;;;;;0.10;0.10;;;;;;;16.55;100.00;98644.41;5093189;28;20238;-57
2023/09/19 04:25:41;;;;;;;0.10;0.10;;;;;;;16.43;100.00;98656.28;5093174;28;20213;-57
2023/09/19 04:28:28;;;;;;;0.10;0.10;;;;;;;16.33;100.00;98652.81;5092087;28;20191;-57
2023/09/19 04:31:16;;;;;;;0.20;0.20;;;;;;;16.43;100.00;98647.41;5094273;28;20199;-58
2023/09/19 04:34:03;;;;;;;0.10;0.10;;;;;;;16.26;100.00;98660.56;5094148;28;20195;-57
2023/09/19 04:36:52;;;;;;;0.10;0.10;;;;;;;16.13;100.00;98637.84;5094183;28;20719;-57
2023/09/19 04:39:39;;;;;;;0.10;0.10;;;;;;;16.11;100.00;98635.28;5093988;28;20709;-57
2023/09/19 04:42:27;;;;;;;0.10;0.10;;;;;;;16.08;100.00;98643.59;5093931;28;20261;-57
2023/09/19 04:45:14;;;;;;;0.10;0.10;;;;;;;16.05;100.00;98637.72;5092638;28;20194;-57
2023/09/19 04:48:02;;;;;;;0.10;0.10;;;;;;;15.99;100.00;98639.13;5094163;28;20295;-57
2023/09/19 04:50:49;;;;;;;0.10;0.10;;;;;;;15.99;100.00;98644.47;5093732;28;20260;-57
2023/09/19 04:53:38;;;;;;;0.10;0.10;;;;;;;15.84;100.00;98649.44;5094073;28;20626;-57
2023/09/19 04:56:25;;;;;;;0.10;0.10;;;;;;;15.79;100.00;98651.69;5093789;28;20194;-58
2023/09/19 04:59:12;;;;;;;0.10;0.10;;;;;;;15.70;100.00;98668.56;5092258;28;20265;-57
2023/09/19 05:01:59;;;;;;;0.10;0.10;;;;;;;15.60;100.00;98670.38;5093696;28;20320;-57
2023/09/19 05:04:47;;;;;;;0.10;0.10;;;;;;;15.61;100.00;98675.59;5093710;28;20198;-57
2023/09/19 05:07:34;;;;;;;0.10;0.10;;;;;;;15.62;100.00;98673.78;5093326;28;20381;-57
2023/09/19 05:10:22;;;;;;;0.10;0.10;;;;;;;15.48;100.00;98671.50;5093688;28;20253;-57
2023/09/19 05:13:09;;;;;;;0.10;0.10;;;;;;;15.45;100.00;98670.81;5092324;28;20276;-57
2023/09/19 05:15:56;;;;;;;0.10;0.10;;;;;;;15.38;100.00;98671.53;5093091;28;20191;-57
2023/09/19 05:18:43;;;;;;;0.10;0.10;;;;;;;15.44;100.00;98670.94;5093453;28;20190;-57
2023/09/19 05:21:31;;;;;;;0.10;0.10;;;;;;;15.40;100.00;98672.22;5093365;28;20194;-57
2023/09/19 05:24:18;;;;;;;0.10;0.10;;;;;;;15.53;100.00;98677.25;5092852;28;20230;-57
2023/09/19 05:27:07;;;;;;;0.10;0.10;;;;;;;15.49;100.00;98675.88;5093177;28;20191;-57
2023/09/19 05:29:55;;;;;;;0.10;0.10;;;;;;;15.52;100.00;98684.44;5091957;28;20566;-57
2023/09/19 05:32:43;;;;;;;0.10;0.10;;;;;;;15.55;100.00;98697.50;5093181;28;20310;-57
2023/09/19 05:35:30;;;;;;;0.10;0.10;;;;;;;15.59;100.00;98700.72;5093125;28;20194;-57
2023/09/19 05:38:18;;;;;;;0.10;0.10;;;;;;;15.59;100.00;98698.06;5093176;28;20194;-57
2023/09/19 05:41:06;;;;;;;0.10;0.10;;;;;;;15.44;100.00;98697.63;5092865;28;20211;-57
2023/09/19 05:43:55;;;;;;;0.10;0.10;;;;;;;15.51;100.00;98698.75;5091833;28;20245;-57
2023/09/19 05:46:42;;;;;;;0.10;0.10;;;;;;;15.59;100.00;98700.72;5092907;28;20194;-57
2023/09/19 05:49:29;;;;;;;0.10;0.10;;;;;;;15.56;100.00;98701.88;5092606;28;20191;-57
2023/09/19 05:52:16;;;;;;;0.10;0.10;;;;;;;15.51;100.00;98698.75;5093148;28;20195;-57
2023/09/19 05:55:05;;;;;;;0.10;0.10;;;;;;;15.57;100.00;98702.69;5093016;28;20195;-57
2023/09/19 05:57:52;;;;;;;0.10;0.10;;;;;;;15.58;100.00;98713.25;5092027;28;20194;-57
2023/09/19 06:00:41;;;;;;;0.10;0.10;;;;;;;15.62;100.00;98721.84;5092678;28;20332;-57
2023/09/19 06:03:29;;;;;;;0.10;0.10;;;;;;;15.63;100.00;98720.84;5092812;28;20285;-57
2023/09/19 06:06:16;;;;;;;0.10;0.10;;;;;;;15.70;100.00;98717.47;5092964;28;20194;-57
2023/09/19 06:09:03;;;;;;;0.10;0.10;;;;;;;15.80;100.00;98716.63;5092989;28;20194;-57
2023/09/19 06:11:51;;;;;;;0.10;0.10;;;;;;;15.88;100.00;98712.25;5092804;28;20187;-57
2023/09/19 06:14:40;;;;;;;0.10;0.10;;;;;;;15.92;100.00;98721.69;5091460;28;20194;-57
2023/09/19 06:17:28;;;;;;;0.10;0.10;;;;;;;16.03;100.00;98726.03;5092742;28;20290;-57
2023/09/19 06:20:16;;;;;;;0.10;0.10;;;;;;;16.17;100.00;98728.25;5092577;28;20309;-57
2023/09/19 06:23:04;;;;;;;0.10;0.10;;;;;;;16.29;100.00;98734.25;5092501;28;20333;-57
2023/09/19 06:25:51;;;;;;;0.10;0.10;;;;;;;16.14;100.00;98741.06;5092675;28;20289;-57
2023/09/19 06:28:37;;;;;;;0.10;0.10;;;;;;;16.24;100.00;98750.72;5092708;28;20737;-57
2023/09/19 06:31:26;;;;;;;0.10;0.10;;;;;;;16.39;100.00;98753.78;5096641;28;20253;-57
2023/09/19 06:34:15;;;;;;;0.10;0.10;;;;;;;16.44;100.00;98762.22;5096569;28;20195;-57
2023/09/19 06:37:03;;;;;;;0.10;0.10;;;;;;;16.44;100.00;98770.25;5096438;28;20186;-57
2023/09/19 06:39:50;;;;;;;0.10;0.10;;;;;;;16.44;100.00;98778.25;5096602;28;20313;-57
2023/09/19 06:42:38;;;;;;;0.10;0.10;;;;;;;16.64;100.00;98772.84;5096319;28;20194;-57
2023/09/19 06:45:26;;;;;;;0.10;0.10;;;;;;;16.77;100.00;98778.75;5095567;28;20195;-57
2023/09/19 06:48:14;;;;;;;0.03;0.03;;;;;;;16.75;100.00;98778.88;5096292;28;20198;-57
2023/09/19 06:51:05;;;;;;;0.10;0.10;;;;;;;16.96;100.00;98775.97;5096232;28;20199;-57
2023/09/19 06:53:54;;;;;;;0.10;0.10;;;;;;;16.98;100.00;98778.50;5095943;28;20206;-57
2023/09/19 06:56:41;;;;;;;0.10;0.10;;;;;;;17.05;100.00;98775.09;5096122;28;20268;-57
2023/09/19 06:59:28;;;;;;;0.10;0.10;;;;;;;17.26;100.00;98776.66;5094917;28;20321;-57
2023/09/19 07:02:15;;;;;;;0.10;0.10;;;;;;;17.24;100.00;98778.66;5095620;28;20214;-57
2023/09/19 07:05:02;;;;;;;0.10;0.10;;;;;;;17.35;100.00;98779.28;5095979;28;20249;-57
2023/09/19 07:07:50;;;;;;;0.10;0.10;;;;;;;17.36;100.00;98769.41;5095953;28;20194;-57
2023/09/19 07:10:37;;;;;;;0.10;0.10;;;;;;;17.57;100.00;98778.03;5095706;28;20669;-57
2023/09/19 07:13:25;;;;;;;0.10;0.10;;;;;;;17.44;100.00;98780.22;5094556;28;20206;-57
2023/09/19 07:16:27;;;;;;;0.10;0.10;;;;;;;17.43;100.00;98784.75;5095779;28;20195;-57
2023/09/19 07:19:15;;;;;;;0.10;0.10;;;;;;;17.58;100.00;98789.59;5095719;28;20210;-57
2023/09/19 07:22:02;;;;;;;0.10;0.10;;;;;;;17.82;100.00;98797.03;5095417;28;20226;-57
2023/09/19 07:24:50;;;;;;;0.10;0.10;;;;;;;17.86;100.00;98790.41;5095643;28;20198;-57
2023/09/19 07:27:37;;;;;;;0.10;0.10;;;;;;;17.56;100.00;98797.75;5095533;28;20198;-56
2023/09/19 07:30:25;;;;;;;0.10;0.10;;;;;;;17.63;100.00;98814.06;5094688;28;20636;-56
2023/09/19 07:33:12;;;;;;;0.10;0.10;;;;;;;17.75;100.00;98796.81;5095388;28;20191;-57
2023/09/19 07:35:59;;;;;;;0.10;0.10;;;;;;;17.55;100.00;98801.44;5094445;28;20267;-57
2023/09/19 07:38:48;;;;;;;0.10;0.10;;;;;;;17.55;100.00;98793.41;5095189;28;20226;-57
2023/09/19 07:41:36;;;;;;;0.10;0.10;;;;;;;17.82;100.00;98797.88;5095075;28;20420;-57
2023/09/19 07:44:25;;;;;;;0.10;0.10;;;;;;;17.80;100.00;98807.91;5093948;28;20257;-57
2023/09/19 07:47:12;;;;;;;0.10;0.10;;;;;;;17.61;100.00;98810.72;5095316;28;20203;-56
2023/09/19 07:50:00;;;;;;;0.10;0.10;;;;;;;17.68;100.00;98807.28;5095034;28;20197;-56
2023/09/19 07:52:48;;;;;;;0.10;0.10;;;;;;;17.67;100.00;98808.28;5094934;28;20187;-57
2023/09/19 07:55:34;;;;;;;0.10;0.10;;;;;;;17.86;100.00;98793.94;5095001;28;20362;-57
2023/09/19 07:58:23;;;;;;;0.10;0.10;;;;;;;17.84;100.00;98798.56;5093638;28;20225;-57
2023/09/19 08:01:10;;;;;;;0.10;0.10;;;;;;;17.90;100.00;98805.16;5094610;28;20210;-57
2023/09/19 08:03:58;;;;;;;0.10;0.10;;;;;;;17.91;100.00;98801.50;5094922;28;20199;-57
2023/09/19 08:06:45;;;;;;;0.10;0.10;;;;;;;17.93;100.00;98800.34;5094645;28;20192;-57
2023/09/19 08:09:33;;;;;;;0.10;0.10;;;;;;;18.03;100.00;98800.25;5094661;28;20199;-57
2023/09/19 08:12:24;;;;;;;0.10;0.10;;;;;;;18.16;100.00;98802.56;5095003;28;20190;-57
2023/09/19 08:15:13;;;;;;;0.10;0.10;;;;;;;18.08;100.00;98800.66;5093183;28;20194;-57
2023/09/19 08:18:00;;;;;;;0.10;0.10;;;;;;;18.21;100.00;98797.56;5095241;28;20318;-57
2023/09/19 08:20:50;;;;;;;0.10;0.10;;;;;;;18.53;100.00;98805.88;5094664;28;20701;-57
2023/09/19 08:23:38;;;;;;;0.10;0.10;;;;;;;18.41;100.00;98808.94;5094194;28;20297;-57
2023/09/19 08:26:25;;;;;;;0.10;0.10;;;;;;;18.58;100.00;98810.75;5094075;28;20371;-57
2023/09/19 08:29:12;;;;;;;0.10;0.10;;;;;;;18.63;100.00;98796.88;5093130;28;20283;-57
2023/09/19 08:32:00;;;;;;;0.10;0.10;;;;;;;18.51;100.00;98804.31;5093206;28;20317;-57
2023/09/19 08:34:47;;;;;;;0.10;0.10;;;;;;;18.34;100.00;98814.09;5094378;28;20211;-57
2023/09/19 08:37:34;;;;;;;0.10;0.10;;;;;;;18.40;100.00;98810.78;5094201;28;20201;-57
2023/09/19 08:40:21;;;;;;;0.10;0.10;;;;;;;18.52;100.00;98801.47;5094053;28;20218;-57
2023/09/19 08:43:08;;;;;;;0.10;0.10;;;;;;;18.66;100.00;98804.63;5092791;28;20195;-57
2023/09/19 08:46:04;;;;;;;0.10;0.10;;;;;;;18.54;100.00;98806.69;5094070;28;20198;-57
2023/09/19 08:48:59;;;;;;;0.10;0.10;;;;;;;18.95;100.00;98813.19;5093573;28;20273;-57
2023/09/19 08:51:46;;;;;;;0.10;0.10;;;;;;;19.42;100.00;98810.03;5093078;28;20309;-57
2023/09/19 08:54:39;;;;;;;0.10;0.10;;;;;;;19.28;100.00;98802.56;5093839;28;20199;-57
2023/09/19 08:57:29;;;;;;;0.10;0.10;;;;;;;19.13;100.00;98803.19;5093780;28;20195;-57
2023/09/19 09:00:20;;;;;;;0.10;0.10;;;;;;;19.18;100.00;98805.38;5092287;28;20195;-57
2023/09/19 09:03:12;;;;;;;0.10;0.10;;;;;;;19.21;100.00;98821.19;5093265;28;20213;-57
2023/09/19 09:06:01;;;;;;;0.10;0.10;;;;;;;19.44;100.00;98818.75;5093822;28;20186;-57
2023/09/19 09:08:48;;;;;;;0.10;0.10;;;;;;;19.59;100.00;98816.28;5093560;28;20265;-57
2023/09/19 09:11:35;;;;;;;0.10;0.10;;;;;;;19.55;100.00;98825.66;5093375;28;20195;-57
2023/09/19 09:14:23;;;;;;;0.10;0.10;;;;;;;19.51;100.00;98833.22;5090779;28;20203;-57
2023/09/19 09:17:11;;;;;;;0.10;0.10;;;;;;;20.05;99.26;98824.78;5093581;28;20223;-58
2023/09/19 09:19:58;;;;;;;0.10;0.10;;;;;;;20.20;98.99;98823.13;5093263;28;20211;-57
2023/09/19 09:23:00;;;;;;;0.10;0.10;;;;;;;20.29;96.87;98841.78;5092956;28;20234;-58
2023/09/19 09:25:59;;;;;;;0.07;0.07;;;;;;;19.72;97.17;98820.22;5093437;28;20202;-57
2023/09/19 09:28:48;;;;;;;0.00;0.00;;;;;;;19.57;100.00;98837.13;5091745;28;20827;-57
2023/09/19 09:31:35;;;;;;;0.10;0.10;;;;;;;19.06;100.00;98831.69;5093018;28;20194;-57
2023/09/19 09:34:23;;;;;;;0.10;0.10;;;;;;;19.14;100.00;98844.31;5093072;28;20218;-58
2023/09/19 09:37:17;;;;;;;0.10;0.10;;;;;;;19.44;100.00;98838.41;5092368;28;20298;-57
2023/09/19 09:40:19;;;;;;;0.10;0.10;;;;;;;19.79;100.00;98841.06;5092912;28;20191;-57
2023/09/19 09:43:27;;;;;;;0.10;0.10;;;;;;;20.02;100.00;98836.72;5091503;28;20751;-57
2023/09/19 09:49:33;;;;;;;0.10;0.10;;;;;;;20.55;100.00;98836.25;5030672;28;20710;-57
2023/09/19 09:52:24;;;;;;;0.10;0.10;;;;;;;20.87;91.75;98834.53;5093052;28;20233;-57
2023/09/19 09:55:13;;;;;;;0.03;0.03;;;;;;;20.76;89.03;98829.50;5092898;28;20198;-57
2023/09/19 09:58:23;;;;;;;0.10;0.10;;;;;;;20.45;90.53;98829.38;5091481;28;20199;-57
2023/09/19 10:01:15;;;;;;;0.10;0.10;;;;;;;20.04;91.08;98837.41;5092453;28;20696;-57
2023/09/19 10:04:02;;;;;;;0.00;0.00;;;;;;;20.94;92.01;98835.53;5095070;28;20216;-57
2023/09/19 10:06:49;;;;;;;0.10;0.10;;;;;;;21.73;82.49;98840.97;5097043;28;20233;-57
2023/09/19 10:09:47;;;;;;;0.10;0.10;;;;;;;22.26;75.42;98846.38;5097097;28;20190;-57
2023/09/19 10:12:38;;;;;;;0.10;0.10;;;;;;;22.73;66.86;98841.75;5097059;28;20187;-57
2023/09/19 10:15:31;;;;;;;0.00;0.00;;;;;;;22.94;65.29;98819.44;5096931;28;20257;-57
2023/09/19 10:18:21;;;;;;;0.10;0.10;;;;;;;23.02;69.92;98820.19;5096769;28;20202;-57
2023/09/19 10:21:11;;;;;;;0.10;0.10;;;;;;;22.94;69.76;98824.84;5096913;28;20261;-58
2023/09/19 10:24:00;;;;;;;0.10;0.10;;;;;;;23.96;63.39;98818.50;5096384;28;20231;-58
2023/09/19 10:26:50;;;;;;;0.10;0.10;;;;;;;24.23;62.02;98813.34;5095499;28;20195;-58
2023/09/19 10:29:40;;;;;;;0.10;0.10;;;;;;;23.38;62.04;98806.75;5095043;28;20203;-57
2023/09/19 10:32:33;;;;;;;0.10;0.10;;;;;;;22.45;66.54;98826.13;5096699;28;20229;-57
2023/09/19 10:35:22;;;;;;;0.10;0.10;;;;;;;21.84;71.74;98819.00;5096557;28;20265;-57
2023/09/19 10:38:11;;;;;;;0.10;0.10;;;;;;;22.10;70.35;98821.34;5096578;28;20191;-57
2023/09/19 10:40:59;;;;;;;0.10;0.10;;;;;;;22.30;70.80;98825.28;5096161;28;20198;-57
2023/09/19 10:43:49;;;;;;;0.10;0.10;;;;;;;23.09;64.57;98826.53;5094815;28;20215;-57
2023/09/19 10:46:38;;;;;;;0.10;0.10;;;;;;;23.33;60.03;98817.28;5094743;28;20199;-58
2023/09/19 10:49:26;;;;;;;0.10;0.10;;;;;;;23.53;58.00;98812.13;5095075;28;20265;-58
2023/09/19 10:52:18;;;;;;;0.10;0.10;;;;;;;24.18;55.54;98826.63;5096331;28;20253;-57
2023/09/19 10:55:07;;;;;;;0.10;0.10;;;;;;;24.32;55.31;98823.03;5096307;28;20198;-57
2023/09/19 10:57:53;;;;;;;0.10;0.10;;;;;;;23.95;56.93;98821.41;5095494;28;20648;-58
2023/09/19 11:00:55;;;;;;;0.10;0.10;;;;;;;24.33;58.26;98832.00;5096101;28;20206;-57
2023/09/19 11:03:44;;;;;;;0.10;0.10;;;;;;;25.76;51.64;98829.59;5095842;28;20283;-57
2023/09/19 11:06:31;;;;;;;0.10;0.10;;;;;;;25.78;48.11;98835.69;5095784;28;20221;-58
2023/09/19 11:09:21;;;;;;;0.10;0.10;;;;;;;26.99;45.80;98824.72;5095908;28;20194;-58
2023/09/19 11:12:09;;;;;;;0.10;0.10;;;;;;;25.74;47.15;98815.41;5096146;28;20716;-58
2023/09/19 11:14:56;;;;;;;0.10;0.10;;;;;;;25.57;48.93;98819.47;5094001;28;20237;-58
2023/09/19 11:17:46;;;;;;;0.10;0.10;;;;;;;25.00;49.60;98815.22;5095896;28;20302;-58
2023/09/19 11:20:51;;;;;;;0.10;0.10;;;;;;;24.20;54.15;98825.38;5095755;28;20195;-58
2023/09/19 11:23:38;;;;;;;0.10;0.10;;;;;;;23.82;56.20;98811.25;5095368;28;20260;-58
2023/09/19 11:26:47;;;;;;;0.10;0.10;;;;;;;23.54;58.31;98800.28;5095596;28;20273;-58
2023/09/19 11:29:35;;;;;;;0.10;0.10;;;;;;;25.75;51.88;98803.50;5094277;28;20237;-58
2023/09/19 11:33:11;;;;;;;0.10;0.10;;;;;;;28.04;45.74;98788.13;5095638;28;20208;-58
2023/09/19 11:36:04;;;;;;;0.10;0.10;;;;;;;28.65;41.89;98808.44;5095622;28;20274;-58
2023/09/19 11:39:14;;;;;;;0.00;0.00;;;;;;;29.67;39.75;98793.31;5095670;28;20194;-58
2023/09/19 11:42:02;;;;;;;0.03;0.03;;;;;;;29.37;37.70;98812.34;5095448;28;20199;-58
2023/09/19 11:44:51;;;;;;;0.10;0.10;;;;;;;27.32;40.60;98809.19;5094011;28;20541;-57
2023/09/19 11:47:39;;;;;;;0.00;0.00;;;;;;;24.49;48.65;98807.34;5095314;28;20248;-58
2023/09/19 11:50:28;;;;;;;0.10;0.10;;;;;;;23.76;51.62;98803.91;5095047;28;20302;-57
2023/09/19 11:53:17;;;;;;;0.10;0.10;;;;;;;24.42;52.27;98801.06;5095015;28;20641;-58
2023/09/19 11:56:10;;;;;;;0.10;0.10;;;;;;;25.16;47.66;98806.78;5094999;28;20195;-57
2023/09/19 11:58:59;;;;;;;0.10;0.10;;;;;;;26.97;44.08;98814.06;5092748;28;20215;-58
2023/09/19 12:01:57;;;;;;;0.00;0.00;;;;;;;28.07;39.88;98801.31;5094920;28;20195;-58
2023/09/19 12:04:49;;;;;;;0.10;0.10;;;;;;;28.05;40.59;98803.41;5094747;28;20314;-58
2023/09/19 12:07:45;;;;;;;0.00;0.00;;;;;;;26.16;44.57;98811.56;5094864;28;20237;-58
2023/09/19 12:10:34;;;;;;;0.10;0.10;;;;;;;25.10;45.64;98811.16;5094889;28;20195;-58
2023/09/19 12:13:21;;;;;;;0.10;0.10;;;;;;;24.10;49.35;98808.63;5093540;28;20284;-58
2023/09/19 12:16:14;;;;;;;0.10;0.10;;;;;;;26.67;43.20;98807.41;5094780;28;20206;-58
2023/09/19 12:19:21;;;;;;;0.00;0.00;;;;;;;23.79;47.86;98802.69;5094520;28;20195;-57
2023/09/19 12:22:09;;;;;;;0.10;0.10;;;;;;;23.64;51.79;98798.19;5094505;28;20206;-59
2023/09/19 12:25:07;;;;;;;0.10;0.10;;;;;;;25.75;45.83;98797.25;5094487;28;20207;-57
2023/09/19 12:27:56;;;;;;;0.10;0.10;;;;;;;25.58;43.67;98794.91;5093138;28;20222;-57
2023/09/19 12:30:42;;;;;;;0.10;0.10;;;;;;;27.92;40.11;98768.94;5094309;28;20198;-58
2023/09/19 12:33:30;;;;;;;0.10;0.10;;;;;;;28.64;37.98;98771.31;5094305;28;20190;-57
2023/09/19 12:36:29;;;;;;;0.00;0.00;;;;;;;27.71;38.67;98772.00;5094235;28;20329;-58
2023/09/19 12:39:26;;;;;;;0.10;0.10;;;;;;;27.36;38.46;98772.34;5094187;28;20557;-58
2023/09/19 12:42:14;;;;;;;0.10;0.10;;;;;;;27.70;38.17;98770.34;5093971;28;20318;-57
2023/09/19 12:45:03;;;;;;;0.10;0.10;;;;;;;28.60;37.21;98768.22;5092501;28;20230;-57
2023/09/19 12:48:31;;;;;;;0.00;0.00;;;;;;;27.30;38.57;98773.19;5094098;28;20203;-57
2023/09/19 12:51:22;;;;;;;0.10;0.10;;;;;;;24.92;43.11;98777.44;5094095;28;20313;-58
2023/09/19 12:54:10;;;;;;;0.10;0.10;;;;;;;26.55;40.88;98771.91;5094079;28;20190;-57
2023/09/19 12:56:58;;;;;;;0.10;0.10;;;;;;;27.98;38.07;98774.56;5094408;28;20191;-58
2023/09/19 12:59:45;;;;;;;0.00;0.00;;;;;;;26.04;40.51;98771.63;5092324;28;20216;-58
2023/09/19 13:02:33;;;;;;;0.10;0.10;;;;;;;27.69;39.42;98763.22;5093858;28;20198;-58
2023/09/19 13:05:22;;;;;;;0.10;0.10;;;;;;;28.62;36.56;98776.19;5094560;28;20194;-57
2023/09/19 13:08:20;;;;;;;0.10;0.10;;;;;;;30.73;34.40;98765.22;5093837;28;20202;-58
2023/09/19 13:11:13;;;;;;;0.00;0.00;;;;;;;29.84;34.50;98769.75;5094112;28;20248;-58
2023/09/19 13:14:17;;;;;;;0.08;0.08;;;;;;;29.14;34.48;98763.91;5091210;28;20199;-58
2023/09/19 13:17:08;;;;;;;0.00;0.00;;;;;;;28.00;36.32;98762.41;5091986;28;20313;-57